Time;durP1;ratioP1;P1;durP2;ratioP2;P2;SDS_P1;SDS_P2;PMS_P1;PMS_P2;Temp;Humidity;BMP_temperature;BMP_pressure;BME280_temperature;BME280_humidity;BME280_pressure;Samples;Min_cycle;Max_cycle;Signal;HPM_P1;HPM_P2
2023/09/22 00:00:11;;;;;;;16.50;3.50;;;;;;;;;;5033087;28;20255;-31
2023/09/22 00:02:37;;;;;;;13.82;3.50;;;;;;;;;;5033303;28;20427;-31
2023/09/22 00:05:03;;;;;;;16.73;3.55;;;;;;;;;;5033028;28;20111;-31
2023/09/22 00:07:29;;;;;;;16.58;4.25;;;;;;;;;;5033260;28;20013;-31
2023/09/22 00:09:55;;;;;;;9.98;4.00;;;;;;;;;;5033422;28;20029;-30
2023/09/22 00:12:20;;;;;;;12.55;4.80;;;;;;;;;;5037010;28;20018;-31
2023/09/22 00:14:45;;;;;;;9.80;4.38;;;;;;;;;;5036690;28;20349;-32
2023/09/22 00:17:10;;;;;;;9.77;4.90;;;;;;;;;;5037255;28;20034;-30
2023/09/22 00:19:36;;;;;;;12.43;5.97;;;;;;;;;;5037296;28;20028;-31
2023/09/22 00:22:02;;;;;;;12.85;6.82;;;;;;;;;;5035372;28;20812;-32
2023/09/22 00:24:27;;;;;;;14.43;6.57;;;;;;;;;;5036878;28;20017;-31
2023/09/22 00:26:52;;;;;;;22.23;8.57;;;;;;;;;;5036356;28;20018;-31
2023/09/22 00:29:17;;;;;;;18.00;9.30;;;;;;;;;;5037041;28;20255;-31
2023/09/22 00:31:42;;;;;;;19.37;9.43;;;;;;;;;;5036718;28;20331;-31
2023/09/22 00:34:08;;;;;;;27.67;11.03;;;;;;;;;;5036512;28;20296;-30
2023/09/22 00:36:33;;;;;;;21.55;10.55;;;;;;;;;;5036185;28;20734;-30
2023/09/22 00:38:59;;;;;;;23.38;11.60;;;;;;;;;;5036352;28;20064;-30
2023/09/22 00:41:24;;;;;;;25.25;11.98;;;;;;;;;;5035076;28;20025;-31
2023/09/22 00:43:49;;;;;;;24.20;12.45;;;;;;;;;;5036477;28;20025;-31
2023/09/22 00:46:21;;;;;;;21.80;12.53;;;;;;;;;;5036026;28;20353;-31
2023/09/22 00:48:48;;;;;;;25.37;12.67;;;;;;;;;;5036451;28;20249;-31
2023/09/22 00:51:13;;;;;;;24.98;11.63;;;;;;;;;;5036238;28;20023;-31
2023/09/22 00:53:39;;;;;;;25.38;12.32;;;;;;;;;;5036352;28;20029;-32
2023/09/22 00:56:05;;;;;;;23.92;11.88;;;;;;;;;;5036246;28;20013;-30
2023/09/22 00:58:30;;;;;;;24.83;11.10;;;;;;;;;;5036243;28;20025;-30
2023/09/22 01:00:56;;;;;;;20.50;10.75;;;;;;;;;;5035852;28;20376;-31
2023/09/22 01:03:22;;;;;;;22.02;10.73;;;;;;;;;;5035779;28;20112;-30
2023/09/22 01:05:48;;;;;;;18.13;10.13;;;;;;;;;;5034486;28;20028;-31
2023/09/22 01:08:14;;;;;;;20.67;9.95;;;;;;;;;;5036289;28;20100;-31
2023/09/22 01:10:40;;;;;;;20.75;10.32;;;;;;;;;;5035961;28;20021;-31
2023/09/22 01:13:06;;;;;;;19.83;9.88;;;;;;;;;;5035677;28;20021;-30
2023/09/22 01:15:34;;;;;;;19.75;10.02;;;;;;;;;;5035877;28;20028;-31
2023/09/22 01:18:00;;;;;;;21.05;10.80;;;;;;;;;;5035511;28;20021;-30
2023/09/22 01:20:25;;;;;;;20.70;10.90;;;;;;;;;;5035486;28;20456;-30
2023/09/22 01:22:50;;;;;;;22.50;10.90;;;;;;;;;;5034718;28;20013;-31
2023/09/22 01:25:15;;;;;;;20.75;11.32;;;;;;;;;;5035691;28;20013;-31
2023/09/22 01:27:41;;;;;;;19.50;10.90;;;;;;;;;;5035561;28;20361;-30
2023/09/22 01:30:06;;;;;;;24.33;12.47;;;;;;;;;;5035336;28;20358;-30
2023/09/22 01:32:32;;;;;;;25.50;13.07;;;;;;;;;;5035517;28;20252;-31
2023/09/22 01:34:58;;;;;;;27.70;13.48;;;;;;;;;;5035136;28;20123;-30
2023/09/22 01:37:28;;;;;;;25.58;12.63;;;;;;;;;;5035517;28;20036;-30
2023/09/22 01:39:55;;;;;;;27.05;13.30;;;;;;;;;;5035242;28;20029;-31
2023/09/22 01:42:20;;;;;;;25.40;13.65;;;;;;;;;;5035078;28;20024;-31
2023/09/22 01:44:46;;;;;;;25.73;12.75;;;;;;;;;;5035306;28;20093;-31
2023/09/22 01:47:11;;;;;;;29.00;13.18;;;;;;;;;;5034872;28;20018;-30
2023/09/22 01:49:36;;;;;;;23.40;13.30;;;;;;;;;;5035005;28;20101;-31
2023/09/22 01:52:02;;;;;;;26.50;12.63;;;;;;;;;;5034926;28;20029;-30
2023/09/22 01:54:27;;;;;;;24.73;13.43;;;;;;;;;;5034901;28;20267;-30
2023/09/22 01:56:52;;;;;;;23.93;13.57;;;;;;;;;;5035380;28;20048;-30
2023/09/22 01:59:17;;;;;;;24.95;13.50;;;;;;;;;;5035055;28;20753;-31
2023/09/22 02:01:42;;;;;;;28.47;14.83;;;;;;;;;;5035012;28;20053;-30
2023/09/22 02:04:08;;;;;;;29.10;15.70;;;;;;;;;;5034622;28;20726;-31
2023/09/22 02:06:33;;;;;;;28.45;15.80;;;;;;;;;;5034817;28;20287;-31
2023/09/22 02:08:58;;;;;;;31.40;15.95;;;;;;;;;;5034861;28;20041;-31
2023/09/22 02:11:23;;;;;;;31.67;15.80;;;;;;;;;;5034581;28;20055;-30
2023/09/22 02:13:48;;;;;;;32.67;17.17;;;;;;;;;;5035120;28;20292;-30
2023/09/22 02:16:13;;;;;;;36.03;17.43;;;;;;;;;;5034773;28;20544;-30
2023/09/22 02:18:39;;;;;;;35.83;17.10;;;;;;;;;;5034456;28;20270;-30
2023/09/22 02:21:06;;;;;;;36.97;18.07;;;;;;;;;;5034686;28;20021;-30
2023/09/22 02:23:31;;;;;;;36.72;17.98;;;;;;;;;;5034325;28;20263;-30
2023/09/22 02:25:57;;;;;;;36.05;18.60;;;;;;;;;;5034482;28;20025;-31
2023/09/22 02:28:23;;;;;;;36.30;18.57;;;;;;;;;;5034279;28;20076;-31
2023/09/22 02:30:48;;;;;;;39.30;18.40;;;;;;;;;;5034419;28;20279;-30
2023/09/22 02:33:14;;;;;;;35.88;17.77;;;;;;;;;;5033846;28;20033;-30
2023/09/22 02:35:42;;;;;;;38.83;19.35;;;;;;;;;;5034662;28;20017;-30
2023/09/22 02:38:07;;;;;;;35.55;17.92;;;;;;;;;;5034680;28;20057;-31
2023/09/22 02:40:32;;;;;;;37.33;18.27;;;;;;;;;;5034045;28;20040;-30
2023/09/22 02:42:57;;;;;;;37.00;18.37;;;;;;;;;;5035064;28;20718;-31
2023/09/22 02:45:22;;;;;;;37.37;18.40;;;;;;;;;;5034279;28;20245;-30
2023/09/22 02:47:48;;;;;;;40.13;18.88;;;;;;;;;;5033834;28;20280;-30
2023/09/22 02:50:15;;;;;;;34.33;18.02;;;;;;;;;;5034096;28;20093;-30
2023/09/22 02:52:42;;;;;;;35.00;19.00;;;;;;;;;;5034095;28;20579;-32
2023/09/22 02:55:08;;;;;;;36.28;17.90;;;;;;;;;;5034061;28;20093;-30
2023/09/22 02:57:34;;;;;;;37.30;18.30;;;;;;;;;;5034010;28;20057;-30
2023/09/22 03:00:00;;;;;;;35.60;17.90;;;;;;;;;;5032622;28;20029;-30
2023/09/22 03:02:25;;;;;;;38.70;17.83;;;;;;;;;;5033893;28;20483;-30
2023/09/22 03:04:50;;;;;;;39.92;17.55;;;;;;;;;;5033950;28;20483;-30
2023/09/22 03:07:15;;;;;;;35.87;17.80;;;;;;;;;;5033592;28;20022;-30
2023/09/22 03:09:40;;;;;;;37.83;17.10;;;;;;;;;;5033611;28;20351;-30
2023/09/22 03:12:06;;;;;;;34.50;16.73;;;;;;;;;;5033589;28;20252;-30
2023/09/22 03:14:31;;;;;;;34.50;16.95;;;;;;;;;;5033576;28;20092;-30
2023/09/22 03:16:57;;;;;;;35.33;16.80;;;;;;;;;;5033674;28;20025;-30
2023/09/22 03:19:22;;;;;;;35.92;17.25;;;;;;;;;;5033721;28;20021;-31
2023/09/22 03:21:48;;;;;;;38.00;16.77;;;;;;;;;;5033461;28;20480;-30
2023/09/22 03:24:13;;;;;;;33.47;16.77;;;;;;;;;;5033688;28;20354;-30
2023/09/22 03:26:38;;;;;;;37.53;16.33;;;;;;;;;;5033650;28;20026;-30
2023/09/22 03:29:04;;;;;;;36.83;17.15;;;;;;;;;;5033732;28;20014;-30
2023/09/22 03:31:29;;;;;;;41.15;17.48;;;;;;;;;;5033420;28;20022;-30
2023/09/22 03:33:54;;;;;;;37.53;16.90;;;;;;;;;;5033351;28;20045;-30
2023/09/22 03:36:20;;;;;;;44.20;17.48;;;;;;;;;;5033559;28;20272;-30
2023/09/22 03:38:47;;;;;;;42.78;17.50;;;;;;;;;;5033615;28;20028;-30
2023/09/22 03:41:12;;;;;;;42.70;17.20;;;;;;;;;;5033324;28;20025;-31
2023/09/22 03:43:38;;;;;;;35.90;16.60;;;;;;;;;;5033461;28;20032;-31
2023/09/22 03:46:03;;;;;;;40.10;16.73;;;;;;;;;;5035630;28;20021;-30
2023/09/22 03:48:28;;;;;;;39.17;16.80;;;;;;;;;;5037909;28;20159;-30
2023/09/22 03:50:53;;;;;;;35.97;16.40;;;;;;;;;;5037747;28;20021;-31
2023/09/22 03:53:19;;;;;;;31.53;15.43;;;;;;;;;;5037200;28;20260;-30
2023/09/22 03:55:44;;;;;;;34.70;15.30;;;;;;;;;;5037374;28;20702;-30
2023/09/22 03:58:10;;;;;;;32.87;15.37;;;;;;;;;;5037143;28;20018;-30
2023/09/22 04:00:35;;;;;;;40.17;15.43;;;;;;;;;;5037086;28;20869;-31
2023/09/22 04:03:00;;;;;;;36.17;14.73;;;;;;;;;;5036954;28;20014;-30
2023/09/22 04:05:26;;;;;;;30.87;14.13;;;;;;;;;;5037486;28;20402;-30
2023/09/22 04:07:53;;;;;;;37.58;15.32;;;;;;;;;;5036980;28;20282;-32
2023/09/22 04:10:19;;;;;;;30.20;14.00;;;;;;;;;;5036778;28;20100;-30
2023/09/22 04:12:44;;;;;;;30.83;13.75;;;;;;;;;;5036782;28;20064;-30
2023/09/22 04:15:10;;;;;;;34.72;13.75;;;;;;;;;;5036787;28;20021;-30
2023/09/22 04:17:36;;;;;;;31.42;14.38;;;;;;;;;;5036708;28;20023;-30
2023/09/22 04:20:07;;;;;;;32.08;14.10;;;;;;;;;;5037013;28;20021;-31
2023/09/22 04:22:32;;;;;;;35.20;14.05;;;;;;;;;;5036877;28;20028;-31
2023/09/22 04:25:01;;;;;;;36.67;13.43;;;;;;;;;;5036909;28;20392;-30
2023/09/22 04:27:32;;;;;;;34.13;13.50;;;;;;;;;;5037537;28;20588;-30
2023/09/22 04:29:58;;;;;;;41.92;14.23;;;;;;;;;;5036487;28;20028;-31
2023/09/22 04:32:23;;;;;;;31.42;13.25;;;;;;;;;;5036475;28;20017;-30
2023/09/22 04:34:50;;;;;;;27.02;12.88;;;;;;;;;;5036252;28;20045;-30
2023/09/22 04:37:15;;;;;;;30.85;13.98;;;;;;;;;;5036619;28;20057;-30
2023/09/22 04:39:40;;;;;;;27.93;13.57;;;;;;;;;;5036910;28;20084;-31
2023/09/22 04:42:05;;;;;;;29.05;12.80;;;;;;;;;;5036246;28;20842;-30
2023/09/22 04:44:30;;;;;;;23.53;12.33;;;;;;;;;;5036535;28;20028;-30
2023/09/22 04:46:56;;;;;;;32.00;13.27;;;;;;;;;;5036311;28;20781;-30
2023/09/22 04:49:22;;;;;;;30.45;13.50;;;;;;;;;;5036080;28;20095;-31
2023/09/22 04:51:48;;;;;;;32.28;12.80;;;;;;;;;;5036325;28;20017;-30
2023/09/22 04:54:13;;;;;;;24.98;12.15;;;;;;;;;;5036063;28;20423;-30
2023/09/22 04:56:38;;;;;;;26.80;12.00;;;;;;;;;;5036234;28;20112;-31
2023/09/22 04:59:04;;;;;;;29.95;11.82;;;;;;;;;;5036538;28;20339;-30
2023/09/22 05:01:32;;;;;;;23.77;11.45;;;;;;;;;;5034687;28;20080;-30
2023/09/22 05:03:58;;;;;;;21.88;11.10;;;;;;;;;;5035805;28;20112;-30
2023/09/22 05:06:23;;;;;;;25.65;11.48;;;;;;;;;;5035976;28;20443;-30
2023/09/22 05:08:48;;;;;;;26.90;11.05;;;;;;;;;;5036072;28;20429;-30
2023/09/22 05:11:14;;;;;;;25.30;10.77;;;;;;;;;;5035694;28;20014;-30
2023/09/22 05:13:39;;;;;;;21.63;11.10;;;;;;;;;;5035742;28;20252;-30
2023/09/22 05:16:09;;;;;;;21.52;10.80;;;;;;;;;;5035656;28;20100;-30
2023/09/22 05:18:34;;;;;;;23.60;11.10;;;;;;;;;;5036670;28;20045;-31
2023/09/22 05:21:00;;;;;;;20.60;10.55;;;;;;;;;;5035560;28;20579;-30
2023/09/22 05:23:26;;;;;;;21.65;10.90;;;;;;;;;;5035365;28;20029;-31
2023/09/22 05:25:52;;;;;;;22.55;10.57;;;;;;;;;;5036196;28;20017;-31
2023/09/22 05:28:17;;;;;;;17.27;9.67;;;;;;;;;;5035716;28;20022;-31
2023/09/22 05:30:42;;;;;;;24.45;10.60;;;;;;;;;;5035547;28;20538;-31
2023/09/22 05:33:08;;;;;;;21.30;10.20;;;;;;;;;;5035333;28;20036;-31
2023/09/22 05:35:35;;;;;;;18.93;9.47;;;;;;;;;;5035291;28;20416;-31
2023/09/22 05:38:01;;;;;;;21.73;10.20;;;;;;;;;;5035250;28;20264;-30
2023/09/22 05:40:26;;;;;;;22.13;9.63;;;;;;;;;;5035415;28;20018;-30
2023/09/22 05:42:51;;;;;;;18.30;9.47;;;;;;;;;;5035114;28;20478;-30
2023/09/22 05:45:16;;;;;;;17.27;9.30;;;;;;;;;;5035429;28;20256;-31
2023/09/22 05:47:42;;;;;;;21.00;9.43;;;;;;;;;;5035160;28;20631;-31
2023/09/22 05:50:09;;;;;;;18.90;8.97;;;;;;;;;;5034960;28;20252;-31
2023/09/22 05:52:34;;;;;;;19.33;9.90;;;;;;;;;;5035097;28;20271;-30
2023/09/22 05:55:00;;;;;;;18.60;9.10;;;;;;;;;;5035116;28;20097;-31
2023/09/22 05:57:25;;;;;;;17.53;8.37;;;;;;;;;;5035125;28;20491;-30
2023/09/22 05:59:50;;;;;;;16.43;8.67;;;;;;;;;;5033575;28;20260;-30
2023/09/22 06:02:15;;;;;;;16.77;7.85;;;;;;;;;;5034917;28;20263;-30
2023/09/22 06:04:41;;;;;;;16.70;8.77;;;;;;;;;;5035739;28;20144;-31
2023/09/22 06:07:12;;;;;;;15.80;8.17;;;;;;;;;;5035201;28;20282;-31
2023/09/22 06:09:37;;;;;;;16.98;8.18;;;;;;;;;;5034096;28;20310;-30
2023/09/22 06:12:03;;;;;;;14.95;8.23;;;;;;;;;;5034802;28;20017;-30
2023/09/22 06:14:28;;;;;;;15.30;8.25;;;;;;;;;;5035057;28;20017;-31
2023/09/22 06:16:54;;;;;;;17.15;8.13;;;;;;;;;;5034683;28;20022;-31
2023/09/22 06:19:20;;;;;;;15.65;8.40;;;;;;;;;;5034369;28;20466;-31
2023/09/22 06:21:45;;;;;;;17.65;8.43;;;;;;;;;;5034586;28;20029;-31
2023/09/22 06:24:10;;;;;;;12.90;7.68;;;;;;;;;;5034111;28;20044;-31
2023/09/22 06:26:36;;;;;;;11.55;7.90;;;;;;;;;;5034000;28;20033;-30
2023/09/22 06:29:01;;;;;;;16.05;7.35;;;;;;;;;;5032937;28;20108;-35
2023/09/22 06:31:26;;;;;;;13.77;7.50;;;;;;;;;;5034188;28;20026;-31
2023/09/22 06:33:51;;;;;;;17.20;7.47;;;;;;;;;;5033792;28;20802;-30
2023/09/22 06:36:17;;;;;;;14.73;6.90;;;;;;;;;;5034295;28;20349;-31
2023/09/22 06:38:42;;;;;;;13.75;6.20;;;;;;;;;;5034334;28;20468;-32
2023/09/22 06:41:07;;;;;;;9.93;5.63;;;;;;;;;;5034071;28;20465;-31
2023/09/22 06:43:33;;;;;;;10.32;5.25;;;;;;;;;;5033873;28;20271;-31
2023/09/22 06:46:02;;;;;;;13.32;5.68;;;;;;;;;;5034008;28;20025;-30
2023/09/22 06:48:29;;;;;;;8.88;5.10;;;;;;;;;;5034419;28;20022;-31
2023/09/22 06:50:57;;;;;;;9.63;4.95;;;;;;;;;;5034224;28;20467;-31
2023/09/22 06:53:23;;;;;;;12.82;4.70;;;;;;;;;;5032842;28;20029;-30
2023/09/22 06:55:49;;;;;;;8.95;4.60;;;;;;;;;;5032835;28;20025;-30
2023/09/22 06:58:14;;;;;;;13.90;4.20;;;;;;;;;;5033231;28;20018;-30
2023/09/22 07:00:39;;;;;;;9.88;4.20;;;;;;;;;;5032823;28;20023;-30
2023/09/22 07:03:05;;;;;;;7.35;3.83;;;;;;;;;;5033138;28;20476;-31
2023/09/22 07:05:30;;;;;;;8.80;3.97;;;;;;;;;;5032691;28;20534;-31
2023/09/22 07:07:57;;;;;;;6.53;3.60;;;;;;;;;;5032820;28;20025;-32
2023/09/22 07:10:23;;;;;;;7.80;3.50;;;;;;;;;;5033359;28;20021;-30
2023/09/22 07:12:48;;;;;;;10.82;3.80;;;;;;;;;;5033381;28;20017;-31
2023/09/22 07:15:14;;;;;;;10.57;3.72;;;;;;;;;;5033691;28;20017;-31
2023/09/22 07:17:40;;;;;;;8.10;3.50;;;;;;;;;;5033573;28;20025;-31
2023/09/22 07:20:09;;;;;;;6.05;3.38;;;;;;;;;;5033058;28;20452;-30
2023/09/22 07:22:34;;;;;;;7.40;3.63;;;;;;;;;;5033594;28;20486;-31
2023/09/22 07:25:00;;;;;;;6.75;3.60;;;;;;;;;;5033237;28;20021;-31
2023/09/22 07:27:25;;;;;;;5.03;3.42;;;;;;;;;;5033349;28;20406;-31
2023/09/22 07:29:51;;;;;;;6.93;3.50;;;;;;;;;;5033236;28;20079;-31
2023/09/22 07:32:16;;;;;;;6.88;3.05;;;;;;;;;;5033984;28;20261;-30
2023/09/22 07:34:42;;;;;;;8.50;3.10;;;;;;;;;;5033016;28;20034;-30
2023/09/22 07:37:11;;;;;;;7.32;2.60;;;;;;;;;;5033012;28;20468;-31
2023/09/22 07:39:36;;;;;;;6.78;2.55;;;;;;;;;;5033342;28;20048;-30
2023/09/22 07:42:02;;;;;;;5.37;2.90;;;;;;;;;;5033137;28;20021;-32
2023/09/22 07:44:28;;;;;;;5.50;2.45;;;;;;;;;;5031972;28;20028;-31
2023/09/22 07:46:56;;;;;;;7.95;2.90;;;;;;;;;;5031911;28;20025;-31
2023/09/22 07:49:21;;;;;;;7.63;2.60;;;;;;;;;;5033340;28;20032;-31
2023/09/22 07:51:46;;;;;;;7.60;2.88;;;;;;;;;;5033439;28;20357;-31
2023/09/22 07:54:12;;;;;;;5.33;2.50;;;;;;;;;;5033707;28;20051;-26
2023/09/22 07:56:37;;;;;;;6.40;2.85;;;;;;;;;;5033155;28;20267;-26
2023/09/22 07:59:03;;;;;;;7.82;2.63;;;;;;;;;;5033345;28;20076;-27
2023/09/22 08:01:28;;;;;;;5.03;2.40;;;;;;;;;;5033428;28;20380;-27
2023/09/22 08:03:54;;;;;;;7.53;2.72;;;;;;;;;;5033169;28;20018;-27
2023/09/22 08:06:19;;;;;;;5.13;2.40;;;;;;;;;;5032058;28;20140;-27
2023/09/22 08:08:49;;;;;;;4.90;2.55;;;;;;;;;;5031294;28;20087;-27
2023/09/22 08:11:14;;;;;;;4.55;2.40;;;;;;;;;;5029487;28;20480;-27
2023/09/22 08:13:39;;;;;;;3.15;2.10;;;;;;;;;;5030921;28;20049;-27
2023/09/22 08:16:07;;;;;;;6.20;2.20;;;;;;;;;;5031385;28;20067;-26
2023/09/22 08:18:37;;;;;;;4.43;1.98;;;;;;;;;;5031121;28;20314;-27
2023/09/22 08:21:03;;;;;;;5.93;1.70;;;;;;;;;;5031217;28;20104;-27
2023/09/22 08:23:29;;;;;;;3.30;1.50;;;;;;;;;;5031278;28;20108;-27
2023/09/22 08:25:56;;;;;;;3.38;1.38;;;;;;;;;;5032470;28;20028;-27
2023/09/22 08:28:22;;;;;;;3.45;1.27;;;;;;;;;;5031184;28;20018;-27
2023/09/22 08:30:48;;;;;;;2.70;1.30;;;;;;;;;;5031322;28;20017;-27
2023/09/22 08:33:13;;;;;;;4.07;1.30;;;;;;;;;;5034151;28;20072;-27
2023/09/22 08:35:39;;;;;;;3.90;1.03;;;;;;;;;;5034272;28;20032;-27
2023/09/22 08:38:05;;;;;;;2.00;1.30;;;;;;;;;;5032886;28;20013;-27
2023/09/22 08:40:30;;;;;;;2.03;1.20;;;;;;;;;;5033722;28;20025;-27
2023/09/22 08:42:56;;;;;;;5.15;1.58;;;;;;;;;;5034476;28;20026;-27
2023/09/22 08:45:21;;;;;;;3.95;1.60;;;;;;;;;;5036355;28;20013;-27
2023/09/22 08:47:47;;;;;;;2.65;1.50;;;;;;;;;;5036601;28;20113;-27
2023/09/22 08:50:13;;;;;;;3.00;1.42;;;;;;;;;;5036321;28;20013;-27
2023/09/22 08:52:39;;;;;;;4.05;1.45;;;;;;;;;;5035079;28;20076;-27
2023/09/22 08:55:08;;;;;;;2.85;1.50;;;;;;;;;;5035939;28;20416;-27
2023/09/22 08:57:33;;;;;;;5.18;1.33;;;;;;;;;;5035850;28;20452;-27
2023/09/22 08:59:58;;;;;;;3.53;1.60;;;;;;;;;;5035320;28;20021;-27
2023/09/22 09:02:25;;;;;;;3.25;1.60;;;;;;;;;;5035460;28;20053;-27
2023/09/22 09:04:50;;;;;;;3.60;1.80;;;;;;;;;;5034563;28;20022;-27
2023/09/22 09:07:16;;;;;;;3.97;1.50;;;;;;;;;;5035774;28;20525;-26
2023/09/22 09:09:44;;;;;;;2.20;1.65;;;;;;;;;;5035649;28;20256;-27
2023/09/22 09:12:10;;;;;;;5.20;1.70;;;;;;;;;;5035267;28;20472;-27
2023/09/22 09:14:40;;;;;;;5.97;2.00;;;;;;;;;;5033734;28;20097;-27
2023/09/22 09:17:18;;;;;;;5.20;1.83;;;;;;;;;;5034526;28;20021;-27
2023/09/22 09:19:46;;;;;;;3.35;1.85;;;;;;;;;;5033440;28;20476;-27
2023/09/22 09:22:13;;;;;;;4.63;2.17;;;;;;;;;;5034341;28;20021;-27
2023/09/22 09:24:38;;;;;;;3.90;1.90;;;;;;;;;;5034531;28;20578;-26
2023/09/22 09:27:18;;;;;;;3.13;1.80;;;;;;;;;;5033626;28;20037;-25
2023/09/22 09:29:50;;;;;;;5.97;2.00;;;;;;;;;;5032762;28;20504;-26
2023/09/22 09:32:25;;;;;;;4.20;2.33;;;;;;;;;;5033260;28;20025;-27
2023/09/22 09:34:52;;;;;;;7.13;1.98;;;;;;;;;;5032959;28;20073;-26
2023/09/22 09:37:19;;;;;;;6.03;1.92;;;;;;;;;;5033454;28;20104;-26
2023/09/22 09:39:45;;;;;;;4.07;1.83;;;;;;;;;;5033314;28;20045;-25
2023/09/22 09:42:13;;;;;;;5.32;2.10;;;;;;;;;;5032597;28;20018;-26
2023/09/22 09:44:40;;;;;;;6.10;2.00;;;;;;;;;;5035001;28;20032;-27
2023/09/22 09:47:07;;;;;;;2.92;1.85;;;;;;;;;;5035489;28;20014;-27
2023/09/22 09:49:33;;;;;;;2.80;1.95;;;;;;;;;;5035133;28;20456;-27
2023/09/22 09:52:00;;;;;;;4.32;1.88;;;;;;;;;;5035452;28;20010;-27
2023/09/22 09:54:25;;;;;;;5.93;2.03;;;;;;;;;;5034971;28;20379;-27
2023/09/22 09:56:51;;;;;;;3.72;1.90;;;;;;;;;;5033410;28;20024;-27
2023/09/22 09:59:17;;;;;;;6.43;1.98;;;;;;;;;;5034874;28;20508;-27
2023/09/22 10:01:43;;;;;;;2.55;1.55;;;;;;;;;;5017457;28;20026;-27
2023/09/22 10:04:09;;;;;;;4.97;1.48;;;;;;;;;;5034690;28;20381;-27
2023/09/22 10:06:35;;;;;;;3.53;1.40;;;;;;;;;;5034610;28;20167;-27
2023/09/22 10:09:00;;;;;;;3.00;1.70;;;;;;;;;;5034625;28;20060;-27
2023/09/22 10:11:26;;;;;;;7.10;1.63;;;;;;;;;;5034398;28;20101;-27
2023/09/22 10:13:51;;;;;;;4.72;1.70;;;;;;;;;;5034285;28;20009;-27
2023/09/22 10:16:27;;;;;;;5.20;1.60;;;;;;;;;;5034655;28;20030;-27
2023/09/22 10:18:55;;;;;;;2.47;1.60;;;;;;;;;;5034553;28;20013;-26
2023/09/22 10:21:46;;;;;;;3.70;1.98;;;;;;;;;;5034511;28;20076;-26
2023/09/22 10:24:25;;;;;;;4.63;1.90;;;;;;;;;;5034524;28;20025;-26
2023/09/22 10:26:56;;;;;;;3.85;1.70;;;;;;;;;;5034355;28;20017;-26
2023/09/22 10:29:33;;;;;;;3.85;1.90;;;;;;;;;;5034325;28;20049;-26
2023/09/22 10:32:16;;;;;;;3.55;1.63;;;;;;;;;;5034152;28;20021;-26
2023/09/22 10:34:46;;;;;;;5.63;1.67;;;;;;;;;;5033912;28;20408;-27
2023/09/22 10:37:11;;;;;;;3.63;1.58;;;;;;;;;;5034097;28;20119;-27
2023/09/22 10:39:48;;;;;;;3.77;1.80;;;;;;;;;;5034460;28;20196;-26
2023/09/22 10:42:14;;;;;;;2.80;1.60;;;;;;;;;;5034126;28;20353;-26
2023/09/22 10:44:58;;;;;;;4.17;1.80;;;;;;;;;;5033850;28;20064;-26
2023/09/22 10:47:24;;;;;;;4.35;1.90;;;;;;;;;;5033995;28;20029;-26
2023/09/22 10:49:49;;;;;;;4.20;1.75;;;;;;;;;;5034261;28;20028;-27
2023/09/22 10:52:17;;;;;;;3.75;1.77;;;;;;;;;;5033608;28;20373;-26
2023/09/22 10:54:42;;;;;;;3.70;1.80;;;;;;;;;;5033529;28;20097;-27
2023/09/22 10:57:09;;;;;;;6.82;1.80;;;;;;;;;;5033702;28;20144;-26
2023/09/22 10:59:37;;;;;;;7.43;1.80;;;;;;;;;;5033854;28;20079;-26
2023/09/22 11:02:02;;;;;;;4.53;1.50;;;;;;;;;;5033350;28;20025;-26
2023/09/22 11:04:41;;;;;;;5.17;1.87;;;;;;;;;;5034308;28;20022;-26
2023/09/22 11:07:06;;;;;;;2.40;1.52;;;;;;;;;;5033827;28;20287;-26
2023/09/22 11:09:32;;;;;;;2.50;1.40;;;;;;;;;;5033966;28;20017;-26
2023/09/22 11:11:57;;;;;;;5.85;1.80;;;;;;;;;;5034151;28;20066;-26
2023/09/22 11:17:00;;;;;;;2.50;1.42;;;;;;;;;;5058847;28;20059;-68
2023/09/22 11:19:25;;;;;;;4.83;1.60;;;;;;;;;;5053947;28;20013;-67
2023/09/22 11:21:50;;;;;;;5.57;1.60;;;;;;;;;;5036455;28;20021;-68
2023/09/22 11:24:15;;;;;;;9.70;1.77;;;;;;;;;;5053997;28;20457;-69
2023/09/22 11:26:41;;;;;;;3.30;1.45;;;;;;;;;;5056682;28;20029;-68
2023/09/22 11:29:06;;;;;;;3.90;1.50;;;;;;;;;;5054206;28;20024;-70
2023/09/22 11:31:32;;;;;;;4.53;1.40;;;;;;;;;;5054403;28;20055;-69
2023/09/22 11:34:02;;;;;;;4.57;1.40;;;;;;;;;;5054359;28;20274;-70
2023/09/22 11:36:27;;;;;;;4.60;1.65;;;;;;;;;;5056962;28;20499;-68
2023/09/22 11:38:53;;;;;;;2.88;1.20;;;;;;;;;;5044303;28;20033;-69
2023/09/22 11:41:20;;;;;;;6.45;1.20;;;;;;;;;;5054478;28;20325;-69
2023/09/22 11:43:45;;;;;;;4.93;1.30;;;;;;;;;;5034865;28;20017;-69
2023/09/22 11:46:12;;;;;;;4.20;1.50;;;;;;;;;;5035750;28;20017;-69
2023/09/22 11:48:54;;;;;;;3.05;1.20;;;;;;;;;;5053531;28;20251;-68
2023/09/22 11:51:20;;;;;;;3.50;1.60;;;;;;;;;;5035515;28;20358;-68
2023/09/22 11:53:45;;;;;;;2.63;1.40;;;;;;;;;;5053473;28;20044;-69
2023/09/22 11:56:10;;;;;;;2.80;1.40;;;;;;;;;;5052924;28;20020;-71
2023/09/22 11:58:35;;;;;;;3.37;1.50;;;;;;;;;;5051914;28;20104;-69
2023/09/22 12:01:01;;;;;;;4.63;2.00;;;;;;;;;;5052120;28;20260;-69
2023/09/22 12:03:26;;;;;;;4.97;1.30;;;;;;;;;;5051756;28;20032;-70
2023/09/22 12:05:52;;;;;;;3.65;1.20;;;;;;;;;;5051493;28;20302;-70
2023/09/22 12:08:17;;;;;;;5.10;1.10;;;;;;;;;;5056377;28;20036;-70
2023/09/22 12:10:42;;;;;;;2.47;1.17;;;;;;;;;;5027810;28;20025;-69
2023/09/22 12:13:08;;;;;;;2.37;1.07;;;;;;;;;;5019637;28;20044;-69
2023/09/22 12:15:36;;;;;;;1.90;1.00;;;;;;;;;;5025915;28;20065;-70
2023/09/22 12:18:03;;;;;;;2.88;1.13;;;;;;;;;;5045668;28;20086;-69
2023/09/22 12:20:28;;;;;;;4.18;1.27;;;;;;;;;;5038568;28;20100;-69
2023/09/22 12:22:53;;;;;;;6.78;1.40;;;;;;;;;;5036072;28;20101;-69
2023/09/22 12:25:18;;;;;;;3.43;1.37;;;;;;;;;;5036791;28;20546;-68
2023/09/22 12:27:44;;;;;;;1.93;1.23;;;;;;;;;;5037015;28;20284;-69
2023/09/22 12:30:09;;;;;;;3.58;1.00;;;;;;;;;;5036864;28;20268;-69
2023/09/22 12:32:34;;;;;;;3.55;1.30;;;;;;;;;;5036774;28;20052;-70
2023/09/22 12:35:00;;;;;;;1.80;1.00;;;;;;;;;;5036922;28;20453;-69
2023/09/22 12:37:25;;;;;;;3.75;1.15;;;;;;;;;;5050356;28;20723;-69
2023/09/22 12:39:50;;;;;;;1.48;1.00;;;;;;;;;;5046339;28;20029;-69
2023/09/22 12:42:16;;;;;;;1.67;1.08;;;;;;;;;;5035395;28;20020;-69
2023/09/22 12:44:41;;;;;;;1.83;1.15;;;;;;;;;;5035663;28;20503;-69
2023/09/22 12:47:08;;;;;;;1.90;0.93;;;;;;;;;;5035030;28;20097;-70
2023/09/22 12:49:33;;;;;;;4.05;1.02;;;;;;;;;;5036562;28;20104;-69
2023/09/22 12:52:01;;;;;;;3.00;0.90;;;;;;;;;;5036367;28;20072;-69
2023/09/22 12:54:26;;;;;;;4.00;0.95;;;;;;;;;;5035104;28;20256;-68
2023/09/22 12:56:51;;;;;;;1.60;0.73;;;;;;;;;;5035109;28;20040;-68
2023/09/22 12:59:16;;;;;;;4.17;1.10;;;;;;;;;;5035957;28;20754;-69
2023/09/22 13:01:41;;;;;;;2.77;1.07;;;;;;;;;;5035330;28;20053;-69
2023/09/22 13:04:07;;;;;;;1.83;0.87;;;;;;;;;;5034686;28;20379;-69
2023/09/22 13:06:32;;;;;;;4.13;0.77;;;;;;;;;;5035968;28;20022;-69
2023/09/22 13:08:59;;;;;;;2.00;0.90;;;;;;;;;;5036114;28;20013;-70
2023/09/22 13:11:24;;;;;;;1.63;0.80;;;;;;;;;;5036191;28;20099;-69
2023/09/22 13:13:50;;;;;;;3.53;1.00;;;;;;;;;;5034491;28;20465;-69
2023/09/22 13:16:15;;;;;;;8.50;1.38;;;;;;;;;;5035767;28;20382;-70
2023/09/22 13:18:42;;;;;;;4.10;1.10;;;;;;;;;;5034760;28;20469;-70
2023/09/22 13:21:10;;;;;;;3.28;1.00;;;;;;;;;;5035632;28;20030;-70
2023/09/22 13:23:36;;;;;;;4.03;1.20;;;;;;;;;;5018163;28;20106;-69
2023/09/22 13:26:04;;;;;;;3.27;0.70;;;;;;;;;;5035820;28;20421;-70
2023/09/22 13:28:29;;;;;;;1.98;0.90;;;;;;;;;;5018130;28;20018;-70
2023/09/22 13:30:54;;;;;;;2.27;0.83;;;;;;;;;;5035930;28;20437;-70
2023/09/22 13:33:22;;;;;;;2.38;0.80;;;;;;;;;;5035594;28;20021;-70
2023/09/22 13:35:48;;;;;;;4.07;1.40;;;;;;;;;;5017996;28;20432;-70
2023/09/22 13:38:15;;;;;;;4.53;1.25;;;;;;;;;;5017702;28;20045;-69
2023/09/22 13:40:41;;;;;;;4.47;1.38;;;;;;;;;;5017681;28;20018;-70
2023/09/22 13:43:07;;;;;;;1.70;1.10;;;;;;;;;;5035458;28;20039;-70
2023/09/22 13:45:33;;;;;;;1.98;1.02;;;;;;;;;;5035409;28;20021;-70
2023/09/22 13:47:59;;;;;;;3.00;1.25;;;;;;;;;;5017487;28;20025;-70
2023/09/22 13:50:24;;;;;;;4.67;1.13;;;;;;;;;;5035369;28;20016;-69
2023/09/22 13:52:49;;;;;;;3.43;1.20;;;;;;;;;;5017704;28;20616;-70
2023/09/22 13:55:15;;;;;;;3.67;1.30;;;;;;;;;;5035161;28;20140;-70
2023/09/22 13:57:41;;;;;;;2.70;1.08;;;;;;;;;;5035182;28;20323;-69
2023/09/22 14:00:10;;;;;;;2.58;0.98;;;;;;;;;;5035479;28;20045;-69
2023/09/22 14:02:36;;;;;;;4.00;1.20;;;;;;;;;;5019040;28;20481;-68
2023/09/22 14:05:02;;;;;;;6.45;1.48;;;;;;;;;;5017783;28;20079;-69
2023/09/22 14:07:27;;;;;;;2.55;1.17;;;;;;;;;;5018113;28;20017;-70
2023/09/22 14:09:52;;;;;;;4.80;1.30;;;;;;;;;;5036048;28;20017;-69
2023/09/22 14:12:17;;;;;;;9.67;1.70;;;;;;;;;;5037181;28;20022;-69
2023/09/22 14:14:43;;;;;;;4.13;1.35;;;;;;;;;;5016974;28;20056;-69
2023/09/22 14:17:08;;;;;;;3.87;1.50;;;;;;;;;;5034941;28;20025;-69
2023/09/22 14:19:33;;;;;;;3.10;1.50;;;;;;;;;;5034837;28;20100;-68
2023/09/22 14:21:59;;;;;;;2.92;1.55;;;;;;;;;;5016870;28;20282;-69
2023/09/22 14:24:25;;;;;;;6.07;1.90;;;;;;;;;;5017190;28;20357;-68
2023/09/22 14:26:50;;;;;;;6.05;1.83;;;;;;;;;;5036701;28;20360;-69
2023/09/22 14:29:15;;;;;;;5.27;2.07;;;;;;;;;;5022791;28;20112;-68